createdAt,value
2022-11-23T00:02:07.981Z,7.80
2022-11-23T00:04:34.720Z,8.63
2022-11-23T00:07:01.609Z,9.47
2022-11-23T00:09:28.376Z,7.87
2022-11-23T00:11:55.146Z,8.27
2022-11-23T00:14:23.295Z,8.50
2022-11-23T00:16:50.151Z,8.73
2022-11-23T00:19:17.048Z,9.10
2022-11-23T00:21:43.789Z,8.43
2022-11-23T00:24:11.911Z,8.10
2022-11-23T00:26:38.656Z,5.73
2022-11-23T00:29:05.376Z,8.43
2022-11-23T00:31:33.548Z,9.03
2022-11-23T00:34:00.420Z,9.80
2022-11-23T00:36:27.764Z,8.50
2022-11-23T00:38:55.004Z,8.60
2022-11-23T00:41:23.101Z,8.00
2022-11-23T00:43:50.172Z,8.53
2022-11-23T00:46:18.869Z,9.63
2022-11-23T00:48:48.546Z,9.13
2022-11-23T00:51:17.172Z,8.40
2022-11-23T00:53:44.412Z,7.93
2022-11-23T00:56:12.026Z,10.50
2022-11-23T00:58:39.346Z,8.93
2022-11-23T01:01:08.965Z,8.50
2022-11-23T01:03:37.229Z,8.73
2022-11-23T01:06:07.971Z,9.40
2022-11-23T01:08:34.889Z,8.40
2022-11-23T01:11:03.141Z,8.50
2022-11-23T01:13:30.612Z,8.07
2022-11-23T01:15:57.661Z,9.10
2022-11-23T01:18:24.598Z,10.00
2022-11-23T01:20:51.397Z,8.50
2022-11-23T01:23:19.577Z,9.43
2022-11-23T01:25:46.389Z,9.00
2022-11-23T01:28:13.289Z,7.50
2022-11-23T01:30:40.028Z,6.90
2022-11-23T01:33:06.763Z,8.00
2022-11-23T01:35:33.481Z,9.30
2022-11-23T01:38:00.241Z,6.97
2022-11-23T01:40:28.452Z,8.57
2022-11-23T01:42:56.985Z,6.63
2022-11-23T01:45:40.985Z,7.60
2022-11-23T01:48:14.683Z,6.73
2022-11-23T01:50:44.498Z,8.63
2022-11-23T01:53:12.554Z,7.73
2022-11-23T01:55:41.375Z,6.50
2022-11-23T01:58:10.070Z,7.30
2022-11-23T02:00:37.343Z,8.40
2022-11-23T02:03:05.210Z,8.00
2022-11-23T02:05:36.289Z,9.20
2022-11-23T02:08:04.503Z,8.17
2022-11-23T02:10:31.768Z,8.60
2022-11-23T02:13:03.189Z,6.80
2022-11-23T02:15:30.087Z,9.50
2022-11-23T02:17:58.382Z,7.60
2022-11-23T02:20:25.565Z,8.90
2022-11-23T02:23:01.873Z,8.20
2022-11-23T02:25:36.816Z,8.63
2022-11-23T02:28:05.977Z,7.97
2022-11-23T02:30:34.551Z,8.47
2022-11-23T02:33:04.131Z,7.50
2022-11-23T02:35:30.881Z,7.90
2022-11-23T02:37:58.868Z,6.90
2022-11-23T02:40:28.262Z,7.77
2022-11-23T02:42:55.087Z,7.17
2022-11-23T02:45:31.407Z,6.70
2022-11-23T02:47:58.146Z,7.00
2022-11-23T02:50:24.943Z,7.67
2022-11-23T02:52:51.727Z,7.80
2022-11-23T02:55:18.794Z,7.50
2022-11-23T02:57:45.716Z,8.57
2022-11-23T03:00:13.421Z,7.40
2022-11-23T03:02:41.679Z,7.27
2022-11-23T03:05:08.814Z,8.57
2022-11-23T03:07:35.615Z,7.23
2022-11-23T03:10:02.902Z,7.87
2022-11-23T03:12:29.649Z,7.20
2022-11-23T03:14:56.371Z,9.50
2022-11-23T03:17:23.112Z,6.70
2022-11-23T03:19:51.206Z,8.90
2022-11-23T03:22:17.910Z,6.90
2022-11-23T03:24:44.681Z,7.77
2022-11-23T03:27:11.524Z,7.07
2022-11-23T03:29:38.268Z,7.70
2022-11-23T03:32:05.522Z,8.40
2022-11-23T03:34:32.415Z,6.93
2022-11-23T03:37:00.624Z,8.37
2022-11-23T03:39:27.388Z,8.00
2022-11-23T03:41:54.162Z,6.40
2022-11-23T03:44:20.895Z,7.00
2022-11-23T03:46:47.625Z,7.40
2022-11-23T03:49:14.320Z,7.73
2022-11-23T03:51:41.121Z,7.70
2022-11-23T03:54:09.394Z,7.77
2022-11-23T03:56:36.099Z,6.70
2022-11-23T03:59:02.821Z,6.77
2022-11-23T04:01:29.649Z,6.63
2022-11-23T04:03:56.444Z,5.33
2022-11-23T04:06:23.164Z,5.63
2022-11-23T04:08:50.028Z,6.50
2022-11-23T04:11:18.132Z,5.77
2022-11-23T04:13:44.851Z,6.87
2022-11-23T04:16:11.549Z,6.60
2022-11-23T04:18:38.336Z,6.17
2022-11-23T04:21:05.391Z,6.80
2022-11-23T04:23:32.151Z,6.93
2022-11-23T04:25:58.902Z,5.37
2022-11-23T04:28:26.966Z,7.20
2022-11-23T04:30:53.743Z,8.00
2022-11-23T04:33:20.457Z,6.57
2022-11-23T04:35:47.172Z,7.10
2022-11-23T04:38:13.915Z,7.50
2022-11-23T04:40:40.667Z,8.23
2022-11-23T04:43:07.376Z,7.17
2022-11-23T04:45:38.160Z,7.23
2022-11-23T04:48:05.633Z,6.77
2022-11-23T04:50:32.459Z,7.50
2022-11-23T04:52:59.204Z,7.87
2022-11-23T04:55:25.988Z,6.20
2022-11-23T04:57:52.728Z,8.47
2022-11-23T05:00:19.868Z,6.60
2022-11-23T05:02:48.089Z,7.03
2022-11-23T05:05:14.945Z,8.50
2022-11-23T05:07:41.722Z,7.27
2022-11-23T05:10:09.661Z,7.30
2022-11-23T05:12:36.676Z,7.53
2022-11-23T05:15:03.571Z,8.40
2022-11-23T05:17:30.282Z,7.73
2022-11-23T05:19:58.369Z,8.40
2022-11-23T05:22:25.151Z,8.50
2022-11-23T05:24:51.944Z,8.20
2022-11-23T05:27:18.656Z,9.53
2022-11-23T05:29:45.394Z,7.47
2022-11-23T05:32:12.169Z,8.80
2022-11-23T05:34:38.885Z,8.40
2022-11-23T05:37:07.235Z,7.47
2022-11-23T05:39:34.485Z,6.83
2022-11-23T05:42:01.499Z,7.10
2022-11-23T05:44:28.221Z,8.30
2022-11-23T05:46:55.005Z,7.33
2022-11-23T05:49:21.867Z,9.10
2022-11-23T05:51:48.642Z,8.37
2022-11-23T05:54:16.776Z,6.50
2022-11-23T05:56:43.532Z,6.87
2022-11-23T05:59:11.121Z,7.80
2022-11-23T06:01:37.944Z,7.80
2022-11-23T06:04:05.106Z,7.70
2022-11-23T06:06:31.979Z,6.43
2022-11-23T06:08:58.794Z,7.93
2022-11-23T06:11:27.039Z,8.23
2022-11-23T06:13:53.833Z,6.60
2022-11-23T06:16:20.588Z,8.27
2022-11-23T06:18:47.451Z,6.53
2022-11-23T06:21:14.174Z,7.47
2022-11-23T06:23:40.960Z,6.40
2022-11-23T06:26:07.786Z,6.07
2022-11-23T06:28:35.967Z,7.37
2022-11-23T06:31:04.604Z,5.43
2022-11-23T06:33:31.762Z,6.00
2022-11-23T06:35:59.930Z,6.03
2022-11-23T06:38:27.148Z,5.70
2022-11-23T06:40:56.997Z,5.10
2022-11-23T06:43:23.784Z,6.90
2022-11-23T06:45:52.039Z,6.10
2022-11-23T06:48:18.750Z,5.67
2022-11-23T06:50:45.497Z,6.80
2022-11-23T06:53:12.210Z,7.40
2022-11-23T06:55:39.181Z,5.70
2022-11-23T06:58:06.302Z,6.93
2022-11-23T07:00:33.278Z,5.80
2022-11-23T07:03:01.537Z,6.03
2022-11-23T07:05:28.260Z,6.40
2022-11-23T07:07:55.048Z,5.40
2022-11-23T07:10:21.884Z,7.03
2022-11-23T07:12:48.588Z,5.30
2022-11-23T07:15:15.509Z,5.80
2022-11-23T07:17:43.014Z,5.07
2022-11-23T07:20:12.641Z,5.30
2022-11-23T07:22:39.622Z,6.10
2022-11-23T07:25:06.943Z,6.37
2022-11-23T07:27:33.741Z,5.70
2022-11-23T07:30:00.497Z,6.13
2022-11-23T07:32:27.227Z,7.57
2022-11-23T07:34:54.384Z,5.70
2022-11-23T07:37:22.522Z,6.30
2022-11-23T07:39:57.290Z,7.20
2022-11-23T07:42:35.679Z,6.83
2022-11-23T07:45:05.308Z,8.40
2022-11-23T07:47:32.273Z,6.93
2022-11-23T07:49:59.233Z,7.47
2022-11-23T07:52:27.389Z,7.63
2022-11-23T07:54:54.132Z,6.90
2022-11-23T07:57:20.860Z,6.10
2022-11-23T07:59:47.587Z,6.57
2022-11-23T08:02:15.802Z,7.67
2022-11-23T08:04:42.816Z,8.07
2022-11-23T08:07:09.651Z,6.60
2022-11-23T08:09:37.877Z,6.40
2022-11-23T08:12:04.908Z,7.97
2022-11-23T08:14:32.078Z,7.23
2022-11-23T08:16:59.082Z,6.83
2022-11-23T08:19:25.820Z,6.90
2022-11-23T08:21:52.852Z,6.67
2022-11-23T08:24:19.708Z,7.57
2022-11-23T08:26:48.751Z,5.17
2022-11-23T08:29:15.658Z,5.87
2022-11-23T08:31:42.438Z,6.70
2022-11-23T08:34:09.220Z,7.20
2022-11-23T08:36:36.944Z,6.27
2022-11-23T08:39:03.767Z,6.00
2022-11-23T08:41:30.630Z,6.33
2022-11-23T08:43:58.725Z,7.17
2022-11-23T08:46:25.510Z,5.93
2022-11-23T08:48:52.246Z,5.30
2022-11-23T08:51:18.960Z,5.57
2022-11-23T08:53:45.699Z,4.97
2022-11-23T08:56:12.451Z,5.93
2022-11-23T08:58:39.193Z,6.70
2022-11-23T09:01:09.633Z,6.20
2022-11-23T09:03:36.477Z,6.23
2022-11-23T09:06:03.558Z,6.03
2022-11-23T09:08:30.416Z,5.70
2022-11-23T09:10:59.894Z,5.60
2022-11-23T09:13:26.791Z,5.27
2022-11-23T09:16:00.453Z,5.23
2022-11-23T09:18:29.369Z,4.97
2022-11-23T09:20:58.444Z,5.57
2022-11-23T09:23:25.219Z,6.03
2022-11-23T09:25:51.949Z,5.67
2022-11-23T09:28:19.089Z,5.13
2022-11-23T09:30:46.283Z,5.13
2022-11-23T09:33:13.333Z,5.30
2022-11-23T09:35:43.942Z,5.00
2022-11-23T09:38:11.215Z,6.33
2022-11-23T09:40:39.706Z,4.70
2022-11-23T09:43:35.466Z,5.10
2022-11-23T09:46:09.699Z,5.77
2022-11-23T09:48:48.735Z,5.17
2022-11-23T09:51:18.986Z,4.70
2022-11-23T09:53:50.003Z,4.60
2022-11-23T09:56:19.395Z,5.63
2022-11-23T09:58:47.028Z,5.57
2022-11-23T10:01:15.825Z,4.03
2022-11-23T10:03:48.776Z,6.23
2022-11-23T10:06:21.977Z,4.67
2022-11-23T10:09:08.450Z,4.30
2022-11-23T10:12:03.923Z,4.30
2022-11-23T10:14:47.946Z,4.20
2022-11-23T10:17:22.592Z,4.77
2022-11-23T10:20:02.422Z,5.20
2022-11-23T10:22:38.522Z,5.40
2022-11-23T10:25:15.465Z,4.57
2022-11-23T10:27:43.702Z,5.37
2022-11-23T10:30:12.989Z,5.57
2022-11-23T10:32:46.864Z,4.53
2022-11-23T10:35:15.613Z,4.70
2022-11-23T10:37:44.142Z,5.00
2022-11-23T10:40:17.185Z,5.23
2022-11-23T10:42:46.828Z,4.40
2022-11-23T10:45:19.485Z,4.53
2022-11-23T10:47:51.349Z,4.40
2022-11-23T10:50:27.395Z,4.60
2022-11-23T10:52:59.196Z,4.70
2022-11-23T10:55:28.731Z,3.90
2022-11-23T10:57:56.036Z,3.67
2022-11-23T11:00:30.105Z,4.07
2022-11-23T11:02:58.783Z,3.53
2022-11-23T11:06:06.967Z,3.60
2022-11-23T11:08:21.692Z,4.20
2022-11-23T11:10:49.922Z,4.47
2022-11-23T11:13:26.290Z,4.83
2022-11-23T11:15:55.228Z,5.00
2022-11-23T11:18:24.620Z,3.33
2022-11-23T11:20:57.269Z,3.40
2022-11-23T11:23:25.984Z,5.77
2022-11-23T11:26:07.414Z,3.47
2022-11-23T11:28:37.352Z,3.70
2022-11-23T11:31:30.617Z,3.40
2022-11-23T11:34:06.960Z,4.10
2022-11-23T11:36:38.967Z,3.40
2022-11-23T11:39:19.410Z,3.73
2022-11-23T11:41:49.115Z,3.50
2022-11-23T11:44:21.450Z,3.50
2022-11-23T11:46:54.209Z,4.13
2022-11-23T11:49:25.223Z,2.83
2022-11-23T11:51:56.572Z,2.90
2022-11-23T11:54:31.571Z,4.10
2022-11-23T11:57:03.797Z,2.80
2022-11-23T11:59:36.171Z,3.23
2022-11-23T12:02:17.925Z,2.53
2022-11-23T12:04:54.149Z,2.77
2022-11-23T12:07:28.834Z,2.50
2022-11-23T12:10:03.487Z,2.53
2022-11-23T12:12:34.767Z,2.97
2022-11-23T12:15:01.842Z,2.20
2022-11-23T12:17:51.054Z,2.90
2022-11-23T12:20:24.665Z,2.77
2022-11-23T12:23:05.364Z,2.63
2022-11-23T12:25:36.937Z,2.67
2022-11-23T12:28:18.623Z,3.33
2022-11-23T12:30:57.905Z,2.00
2022-11-23T12:33:46.598Z,2.63
2022-11-23T12:36:36.662Z,2.90
2022-11-23T12:39:13.168Z,3.23
2022-11-23T12:41:47.694Z,3.90
2022-11-23T12:44:49.251Z,2.80
2022-11-23T12:47:31.295Z,2.50
2022-11-23T12:50:05.292Z,2.83
2022-11-23T12:52:48.679Z,2.57
2022-11-23T12:55:23.485Z,3.40
2022-11-23T12:57:58.980Z,4.20
2022-11-23T13:00:31.240Z,3.37
2022-11-23T13:03:49.651Z,2.50
2022-11-23T13:06:44.058Z,2.87
2022-11-23T13:09:35.926Z,2.80
2022-11-23T13:12:23.425Z,2.47
2022-11-23T13:15:04.130Z,2.73
2022-11-23T13:17:42.973Z,2.93
2022-11-23T13:20:30.590Z,2.60
2022-11-23T13:22:58.419Z,2.20
2022-11-23T13:25:26.917Z,2.30
2022-11-23T13:27:59.298Z,2.83
2022-11-23T13:33:37.402Z,3.50
2022-11-23T13:36:10.310Z,2.13
2022-11-23T13:38:40.774Z,2.43
2022-11-23T13:41:56.540Z,2.30
2022-11-23T13:44:28.793Z,3.03
2022-11-23T13:47:18.677Z,2.30
2022-11-23T13:49:47.196Z,3.10
2022-11-23T13:52:32.368Z,2.77
2022-11-23T13:55:18.610Z,2.70
2022-11-23T13:58:06.239Z,2.30
2022-11-23T14:00:47.887Z,2.37
2022-11-23T14:03:48.546Z,3.27
2022-11-23T14:06:24.283Z,2.30
2022-11-23T14:08:59.517Z,2.57
2022-11-23T14:11:27.083Z,2.27
2022-11-23T14:13:57.442Z,2.70
2022-11-23T14:16:45.259Z,3.20
2022-11-23T14:19:21.608Z,2.40
2022-11-23T14:22:01.189Z,2.40
2022-11-23T14:24:50.319Z,1.70
2022-11-23T14:27:46.732Z,2.60
2022-11-23T14:30:40.996Z,2.57
2022-11-23T14:33:21.420Z,2.70
2022-11-23T14:35:58.884Z,3.20
2022-11-23T14:38:50.920Z,2.83
2022-11-23T14:41:20.535Z,2.80
2022-11-23T14:43:47.858Z,3.83
2022-11-23T14:46:16.350Z,2.90
2022-11-23T14:48:43.234Z,2.93
2022-11-23T14:51:15.856Z,3.03
2022-11-23T14:53:47.246Z,3.40
2022-11-23T14:56:27.144Z,3.80
2022-11-23T14:58:59.037Z,2.57
2022-11-23T15:01:26.151Z,3.27
2022-11-23T15:03:57.677Z,3.43
2022-11-23T15:06:30.440Z,2.93
2022-11-23T15:09:04.667Z,3.00
2022-11-23T15:11:33.981Z,3.00
2022-11-23T15:14:00.793Z,4.43
2022-11-23T15:16:27.707Z,4.50
2022-11-23T15:18:54.511Z,3.53
2022-11-23T15:21:27.177Z,3.23
2022-11-23T15:23:56.997Z,3.03
2022-11-23T15:26:46.728Z,3.43
2022-11-23T15:29:28.944Z,2.90
2022-11-23T15:32:22.330Z,4.10
2022-11-23T15:34:42.483Z,3.00
2022-11-23T15:37:10.140Z,3.03
2022-11-23T15:39:38.696Z,3.03
2022-11-23T15:42:06.297Z,3.70
2022-11-23T15:44:33.181Z,3.53
2022-11-23T15:47:02.771Z,3.73
2022-11-23T15:49:29.665Z,4.00
2022-11-23T15:52:00.313Z,4.53
2022-11-23T15:54:34.099Z,3.90
2022-11-23T15:57:06.540Z,4.70
2022-11-23T15:59:40.209Z,5.13
2022-11-23T16:02:14.892Z,6.53
2022-11-23T16:04:42.838Z,5.10
2022-11-23T16:07:21.520Z,4.73
2022-11-23T16:09:51.842Z,3.83
2022-11-23T16:12:28.646Z,4.73
2022-11-23T16:14:56.762Z,3.50
2022-11-23T16:17:25.736Z,4.87
2022-11-23T16:19:54.053Z,4.60
2022-11-23T16:22:26.589Z,3.37
2022-11-23T16:25:00.723Z,4.07
2022-11-23T16:27:28.900Z,3.67
2022-11-23T16:30:01.453Z,4.03
2022-11-23T16:32:31.475Z,3.73
2022-11-23T16:35:06.482Z,4.13
2022-11-23T16:37:33.403Z,3.90
2022-11-23T16:40:00.225Z,3.67
2022-11-23T16:42:28.318Z,3.93
2022-11-23T16:44:55.069Z,3.00
2022-11-23T16:47:24.715Z,3.53
2022-11-23T16:49:52.566Z,3.87
2022-11-23T16:52:19.916Z,4.30
2022-11-23T16:54:46.862Z,3.07
2022-11-23T16:57:29.797Z,3.70
2022-11-23T16:59:57.434Z,3.50
2022-11-23T17:02:24.295Z,5.20
2022-11-23T17:04:51.121Z,3.40
2022-11-23T17:07:17.965Z,3.57
2022-11-23T17:09:44.742Z,4.00
2022-11-23T17:12:15.357Z,4.10
2022-11-23T17:14:46.277Z,4.07
2022-11-23T17:17:18.155Z,3.10
2022-11-23T17:19:44.931Z,4.83
2022-11-23T17:22:11.781Z,4.50
2022-11-23T17:24:38.535Z,4.70
2022-11-23T17:27:05.726Z,4.33
2022-11-23T17:29:35.556Z,3.97
2022-11-23T17:32:14.997Z,3.80
2022-11-23T17:34:41.817Z,3.10
2022-11-23T17:37:17.103Z,4.00
2022-11-23T17:39:44.021Z,4.50
2022-11-23T17:42:11.729Z,4.00
2022-11-23T17:44:38.660Z,3.70
2022-11-23T17:47:06.996Z,4.00
2022-11-23T17:49:35.471Z,4.13
2022-11-23T17:52:02.472Z,5.23
2022-11-23T17:54:29.232Z,4.13
2022-11-23T17:56:56.011Z,5.03
2022-11-23T17:59:22.777Z,4.90
2022-11-23T18:01:49.731Z,5.30
2022-11-23T18:04:16.720Z,5.57
2022-11-23T18:06:44.850Z,5.30
2022-11-23T18:09:11.625Z,6.37
2022-11-23T18:11:38.425Z,4.50
2022-11-23T18:14:05.188Z,4.80
2022-11-23T18:16:31.980Z,3.80
2022-11-23T18:18:58.784Z,6.23
2022-11-23T18:21:25.717Z,5.07
2022-11-23T18:23:53.818Z,5.43
2022-11-23T18:26:22.540Z,4.63
2022-11-23T18:28:49.817Z,5.97
2022-11-23T18:31:17.260Z,4.67
2022-11-23T18:33:45.321Z,4.10
2022-11-23T18:36:12.990Z,5.87
2022-11-23T18:38:40.549Z,4.30
2022-11-23T18:41:08.978Z,5.00
2022-11-23T18:43:35.880Z,6.20
2022-11-23T18:46:05.404Z,4.57
2022-11-23T18:48:32.604Z,4.50
2022-11-23T18:50:59.405Z,6.30
2022-11-23T18:53:26.167Z,6.10
2022-11-23T18:55:57.543Z,5.33
2022-11-23T18:58:32.262Z,6.30
2022-11-23T19:00:59.311Z,4.77
2022-11-23T19:03:26.182Z,5.67
2022-11-23T19:05:52.986Z,6.57
2022-11-23T19:08:20.169Z,5.13
2022-11-23T19:10:46.910Z,5.63
2022-11-23T19:13:13.627Z,6.43
2022-11-23T19:15:41.846Z,5.87
2022-11-23T19:18:08.710Z,5.90
2022-11-23T19:20:35.477Z,6.40
2022-11-23T19:23:02.183Z,7.33
2022-11-23T19:25:29.004Z,5.50
2022-11-23T19:27:55.826Z,6.90
2022-11-23T19:30:22.786Z,6.13
2022-11-23T19:32:50.870Z,6.67
2022-11-23T19:35:18.075Z,6.90
2022-11-23T19:37:44.808Z,6.40
2022-11-23T19:40:12.114Z,6.57
2022-11-23T19:42:38.896Z,5.30
2022-11-23T19:45:06.583Z,7.07
2022-11-23T19:47:33.315Z,5.77
2022-11-23T19:50:01.385Z,5.83
2022-11-23T19:52:48.007Z,4.90
2022-11-23T19:55:15.541Z,4.97
2022-11-23T19:57:42.275Z,5.80
2022-11-23T20:00:10.241Z,7.37
2022-11-23T20:02:37.016Z,6.63
2022-11-23T20:05:05.917Z,7.70
2022-11-23T20:07:32.800Z,7.30
2022-11-23T20:09:59.567Z,7.00
2022-11-23T20:12:26.332Z,6.83
2022-11-23T20:14:53.087Z,6.10
2022-11-23T20:17:19.903Z,6.77
2022-11-23T20:19:58.579Z,7.10
2022-11-23T20:22:26.714Z,5.93
2022-11-23T20:24:53.430Z,6.47
2022-11-23T20:27:20.168Z,6.33
2022-11-23T20:29:46.932Z,5.97
2022-11-23T20:32:13.692Z,5.87
2022-11-23T20:34:40.416Z,6.37
2022-11-23T20:37:07.207Z,6.70
2022-11-23T20:39:35.334Z,6.63
2022-11-23T20:42:02.077Z,7.60
2022-11-23T20:44:33.717Z,6.40
2022-11-23T20:47:02.773Z,6.63
2022-11-23T20:49:30.678Z,6.53
2022-11-23T20:51:57.536Z,6.90
2022-11-23T20:54:24.292Z,6.50
2022-11-23T20:56:52.495Z,5.83
2022-11-23T20:59:19.265Z,6.47
2022-11-23T21:01:46.149Z,7.97
2022-11-23T21:04:13.030Z,7.03
2022-11-23T21:06:40.401Z,7.90
2022-11-23T21:09:07.373Z,5.03
2022-11-23T21:11:34.144Z,6.97
2022-11-23T21:14:03.663Z,8.13
2022-11-23T21:16:30.595Z,7.00
2022-11-23T21:18:57.416Z,6.30
2022-11-23T21:21:24.149Z,5.90
2022-11-23T21:23:52.281Z,6.33
2022-11-23T21:26:19.375Z,5.47
2022-11-23T21:28:46.137Z,5.93
2022-11-23T21:31:14.238Z,4.60
2022-11-23T21:33:41.648Z,6.40
2022-11-23T21:36:09.561Z,6.97
2022-11-23T21:38:36.463Z,7.43
2022-11-23T21:41:04.773Z,6.90
2022-11-23T21:43:31.818Z,7.97
2022-11-23T21:45:59.474Z,6.07
2022-11-23T21:48:27.985Z,6.33
2022-11-23T21:51:02.230Z,7.63
2022-11-23T21:53:29.423Z,6.67
2022-11-23T21:56:00.577Z,6.20
2022-11-23T21:58:27.355Z,6.40
2022-11-23T22:00:54.144Z,5.70
2022-11-23T22:03:20.954Z,7.33
2022-11-23T22:05:57.149Z,7.57
2022-11-23T22:08:31.394Z,6.30
2022-11-23T22:10:58.280Z,6.30
2022-11-23T22:13:25.209Z,6.07
2022-11-23T22:15:52.167Z,6.40
2022-11-23T22:18:18.983Z,5.20
2022-11-23T22:20:45.712Z,6.50
2022-11-23T22:23:14.047Z,7.30
2022-11-23T22:25:45.454Z,5.10
2022-11-23T22:28:14.857Z,7.47
2022-11-23T22:30:41.600Z,5.63
2022-11-23T22:33:08.357Z,6.27
2022-11-23T22:35:35.093Z,4.37
2022-11-23T22:38:01.784Z,6.17
2022-11-23T22:40:29.849Z,6.93
2022-11-23T22:42:56.602Z,8.03
2022-11-23T22:45:23.392Z,7.80
2022-11-23T22:47:50.201Z,6.33
2022-11-23T22:50:16.997Z,7.23
2022-11-23T22:52:43.723Z,8.10
2022-11-23T22:55:10.416Z,7.30
2022-11-23T22:57:38.623Z,6.37
2022-11-23T23:00:06.296Z,6.07
2022-11-23T23:02:33.054Z,6.43
2022-11-23T23:04:59.854Z,6.10
2022-11-23T23:07:26.737Z,7.80
2022-11-23T23:09:53.497Z,7.77
2022-11-23T23:12:20.249Z,7.40
2022-11-23T23:14:48.349Z,7.53
2022-11-23T23:17:15.191Z,6.30
2022-11-23T23:19:41.915Z,4.70
2022-11-23T23:22:08.800Z,7.83
2022-11-23T23:24:35.776Z,6.40
2022-11-23T23:27:02.711Z,6.90
2022-11-23T23:29:29.477Z,7.00
2022-11-23T23:31:57.577Z,7.10
2022-11-23T23:34:24.379Z,8.17
2022-11-23T23:36:51.130Z,5.60
2022-11-23T23:39:17.816Z,4.93
2022-11-23T23:41:44.532Z,5.80
2022-11-23T23:44:11.271Z,6.43
2022-11-23T23:46:37.995Z,5.87
2022-11-23T23:49:06.178Z,6.17
2022-11-23T23:51:32.905Z,4.90
2022-11-23T23:53:59.625Z,5.07
2022-11-23T23:56:29.087Z,5.93
2022-11-23T23:58:57.284Z,5.40
